createdAt,value
2019-05-21T00:00:10.011Z,76328.92
2019-05-21T00:02:39.390Z,76325.50
2019-05-21T00:05:08.934Z,76323.44
2019-05-21T00:07:38.262Z,76319.91
2019-05-21T00:10:08.206Z,76320.11
2019-05-21T00:12:56.705Z,76321.00
2019-05-21T00:15:25.889Z,76319.95
2019-05-21T00:17:55.291Z,76320.07
2019-05-21T00:20:24.682Z,76322.63
2019-05-21T00:22:54.325Z,76327.14
2019-05-21T00:25:23.720Z,76332.73
2019-05-21T00:27:55.982Z,76332.09
2019-05-21T00:31:20.360Z,76332.58
2019-05-21T00:34:44.605Z,76332.42
2019-05-21T00:38:08.996Z,76328.19
2019-05-21T00:41:33.136Z,76322.53
2019-05-21T00:44:02.523Z,76318.94
2019-05-21T00:46:31.914Z,76318.38
2019-05-21T00:49:01.499Z,76314.13
2019-05-21T00:51:30.800Z,76326.70
2019-05-21T00:54:00.204Z,76333.73
2019-05-21T00:56:29.509Z,76326.31
2019-05-21T00:58:58.978Z,76318.48
2019-05-21T01:01:28.285Z,76313.55
2019-05-21T01:03:57.984Z,76314.52
2019-05-21T01:06:27.460Z,76315.19
2019-05-21T01:08:57.202Z,76319.91
2019-05-21T01:11:26.616Z,76316.84
2019-05-21T01:13:56.155Z,76320.32
2019-05-21T01:16:25.550Z,76325.56
2019-05-21T01:18:55.124Z,76331.68
2019-05-21T01:21:24.576Z,76330.74
2019-05-21T01:23:54.391Z,76332.68
2019-05-21T01:26:23.746Z,76335.30
2019-05-21T01:28:53.319Z,76332.61
2019-05-21T01:31:22.648Z,76336.36
2019-05-21T01:33:51.996Z,76334.06
2019-05-21T01:36:21.406Z,76329.51
2019-05-21T01:38:50.846Z,76333.33
2019-05-21T01:41:20.263Z,76327.27
2019-05-21T01:43:49.623Z,76328.47
2019-05-21T01:46:19.073Z,76330.55
2019-05-21T01:48:48.495Z,76331.70
2019-05-21T01:51:17.813Z,76328.70
2019-05-21T01:53:47.210Z,76328.02
2019-05-21T01:56:16.608Z,76330.87
2019-05-21T01:58:45.925Z,76331.20
2019-05-21T02:01:15.306Z,76326.05
2019-05-21T02:03:44.664Z,76322.27
2019-05-21T02:06:14.131Z,76321.45
2019-05-21T02:08:43.519Z,76320.81
2019-05-21T02:11:13.020Z,76320.16
2019-05-21T02:13:42.405Z,76324.69
2019-05-21T02:16:11.875Z,76320.48
2019-05-21T02:18:41.304Z,76322.92
2019-05-21T02:21:10.760Z,76319.42
2019-05-21T02:23:40.227Z,76316.97
2019-05-21T02:26:09.643Z,76316.55
2019-05-21T02:28:39.110Z,76317.81
2019-05-21T02:31:08.441Z,76318.13
2019-05-21T02:33:37.790Z,76315.88
2019-05-21T02:36:07.108Z,76312.73
2019-05-21T02:38:36.471Z,76313.87
2019-05-21T02:41:06.004Z,76316.39
2019-05-21T02:43:35.405Z,76317.84
2019-05-21T02:46:04.895Z,76314.30
2019-05-21T02:48:34.560Z,76310.09
2019-05-21T02:51:03.982Z,76309.53
2019-05-21T02:53:34.611Z,76310.25
2019-05-21T02:56:04.365Z,76308.92
2019-05-21T02:58:33.755Z,76307.66
2019-05-21T03:01:07.927Z,76308.89
2019-05-21T03:03:37.316Z,76305.73
2019-05-21T03:06:13.955Z,76306.11
2019-05-21T03:08:37.849Z,76301.40
2019-05-21T03:11:07.319Z,76303.59
2019-05-21T03:13:36.790Z,76304.91
2019-05-21T03:16:06.215Z,76309.41
2019-05-21T03:18:35.668Z,76308.11
2019-05-21T03:21:05.174Z,76309.92
2019-05-21T03:23:34.586Z,76320.39
2019-05-21T03:26:03.976Z,76321.53
2019-05-21T03:28:33.229Z,76321.72
2019-05-21T03:31:02.778Z,76326.50
2019-05-21T03:33:32.379Z,76333.45
2019-05-21T03:36:01.791Z,76337.20
2019-05-21T03:38:31.207Z,76339.53
2019-05-21T03:41:00.664Z,76349.74
2019-05-21T03:43:30.129Z,76355.72
2019-05-21T03:45:59.563Z,76350.45
2019-05-21T03:48:29.020Z,76356.30
2019-05-21T03:50:58.440Z,76361.34
2019-05-21T03:53:27.867Z,76361.51
2019-05-21T03:55:57.389Z,76364.16
2019-05-21T03:58:26.714Z,76373.05
2019-05-21T04:00:58.029Z,76378.02
2019-05-21T04:03:27.415Z,76379.09
2019-05-21T04:05:57.043Z,76369.75
2019-05-21T04:08:26.449Z,76368.84
2019-05-21T04:10:55.920Z,76374.56
2019-05-21T04:13:25.432Z,76379.97
2019-05-21T04:16:02.753Z,76388.05
2019-05-21T04:18:39.757Z,76404.67
2019-05-21T04:21:09.247Z,76414.30
2019-05-21T04:23:38.675Z,76425.78
2019-05-21T04:26:07.987Z,76439.24
2019-05-21T04:28:37.321Z,76454.13
2019-05-21T04:31:06.901Z,76473.84
2019-05-21T04:33:36.227Z,76487.38
2019-05-21T04:36:05.603Z,76510.28
2019-05-21T04:38:35.240Z,76523.81
2019-05-21T04:41:04.578Z,76534.64
2019-05-21T04:43:34.062Z,76548.53
2019-05-21T04:46:03.602Z,76553.20
2019-05-21T04:48:32.934Z,76554.30
2019-05-21T04:51:02.325Z,76568.08
2019-05-21T04:53:31.661Z,76575.81
2019-05-21T04:56:01.073Z,76578.38
2019-05-21T04:58:30.467Z,76588.32
2019-05-21T05:00:59.949Z,76594.57
2019-05-21T05:03:29.266Z,76605.29
2019-05-21T05:05:58.578Z,76615.17
2019-05-21T05:08:27.992Z,76626.47
2019-05-21T05:10:57.787Z,76646.61
2019-05-21T05:13:27.190Z,76665.23
2019-05-21T05:15:56.918Z,76677.31
2019-05-21T05:18:26.303Z,76699.99
2019-05-21T05:20:55.872Z,76720.05
2019-05-21T05:23:25.286Z,76741.15
2019-05-21T05:25:54.843Z,76755.23
2019-05-21T05:28:24.311Z,76765.06
2019-05-21T05:30:53.669Z,76781.05
2019-05-21T05:33:23.149Z,76800.03
2019-05-21T05:35:52.466Z,76827.28
2019-05-21T05:38:21.913Z,76857.83
2019-05-21T05:40:51.485Z,76888.62
2019-05-21T05:43:20.833Z,76887.09
2019-05-21T05:45:50.183Z,76873.17
2019-05-21T05:48:19.903Z,76850.20
2019-05-21T05:50:54.393Z,76838.44
2019-05-21T05:53:23.812Z,76850.06
2019-05-21T05:55:53.372Z,76862.16
2019-05-21T05:58:22.974Z,76880.34
2019-05-21T06:00:52.514Z,76908.10
2019-05-21T06:03:21.840Z,76922.30
2019-05-21T06:05:51.275Z,76930.71
2019-05-21T06:08:20.775Z,76945.99
2019-05-21T06:10:50.202Z,76956.22
2019-05-21T06:13:19.532Z,76954.85
2019-05-21T06:15:48.978Z,76956.83
2019-05-21T06:18:18.282Z,76956.70
2019-05-21T06:20:47.690Z,76961.22
2019-05-21T06:23:17.154Z,76957.48
2019-05-21T06:25:46.546Z,76952.91
2019-05-21T06:28:15.932Z,76955.02
2019-05-21T06:30:45.349Z,76960.30
2019-05-21T06:33:14.738Z,76978.88
2019-05-21T06:35:44.176Z,76992.41
2019-05-21T06:38:17.649Z,77005.94
2019-05-21T06:40:44.746Z,77008.80
2019-05-21T06:43:14.208Z,76989.71
2019-05-21T06:45:43.598Z,76988.22
2019-05-21T06:48:13.074Z,76991.27
2019-05-21T06:50:42.415Z,77006.00
2019-05-21T06:53:11.728Z,77006.62
2019-05-21T06:55:41.125Z,77016.80
2019-05-21T06:58:10.543Z,77015.86
2019-05-21T07:00:40.161Z,77001.19
2019-05-21T07:03:09.469Z,76992.27
2019-05-21T07:05:39.014Z,76995.50
2019-05-21T07:08:08.581Z,76980.12
2019-05-21T07:10:37.908Z,76990.12
2019-05-21T07:13:07.322Z,77003.16
2019-05-21T07:15:36.805Z,77030.99
2019-05-21T07:18:06.079Z,77048.24
2019-05-21T07:20:35.610Z,77050.19
2019-05-21T07:23:05.108Z,77041.83
2019-05-21T07:25:34.646Z,77059.66
2019-05-21T07:28:23.444Z,77065.83
2019-05-21T07:30:52.897Z,77067.97
2019-05-21T07:33:22.288Z,77062.25
2019-05-21T07:35:51.608Z,77039.36
2019-05-21T07:38:21.005Z,77062.68
2019-05-21T07:40:50.326Z,77077.65
2019-05-21T07:43:19.667Z,77093.33
2019-05-21T07:45:49.127Z,77112.95
2019-05-21T07:48:18.714Z,77100.38
2019-05-21T07:50:48.111Z,77108.63
2019-05-21T07:53:17.506Z,77138.55
2019-05-21T07:55:46.852Z,77150.70
2019-05-21T07:58:16.176Z,77164.27
2019-05-21T08:00:45.513Z,77173.22
2019-05-21T08:03:14.935Z,77206.73
2019-05-21T08:05:44.286Z,77201.56
2019-05-21T08:08:13.710Z,77181.44
2019-05-21T08:10:43.125Z,77205.48
2019-05-21T08:13:12.585Z,77231.69
2019-05-21T08:15:42.084Z,77231.69
2019-05-21T08:18:11.501Z,77203.16
2019-05-21T08:20:40.886Z,77127.54
2019-05-21T08:23:10.206Z,77069.54
2019-05-21T08:25:39.555Z,77087.80
2019-05-21T08:28:09.024Z,77117.78
2019-05-21T08:30:38.504Z,77123.45
2019-05-21T08:33:07.920Z,77129.40
2019-05-21T08:35:37.308Z,77132.08
2019-05-21T08:38:07.036Z,77140.53
2019-05-21T08:40:36.642Z,77143.19
2019-05-21T08:43:05.978Z,77135.03
2019-05-21T08:45:35.457Z,77108.09
2019-05-21T08:48:04.814Z,77066.00
2019-05-21T08:50:34.213Z,77056.42
2019-05-21T08:53:03.604Z,77059.47
2019-05-21T08:55:33.016Z,77073.15
2019-05-21T08:58:07.009Z,77107.93
2019-05-21T09:00:33.540Z,77122.22
2019-05-21T09:03:02.873Z,77124.82
2019-05-21T09:05:32.362Z,77130.28
2019-05-21T09:08:01.761Z,77118.23
2019-05-21T09:10:31.175Z,77141.88
2019-05-21T09:13:00.529Z,77170.31
2019-05-21T09:15:30.004Z,77192.24
2019-05-21T09:17:59.487Z,77185.35
2019-05-21T09:20:28.742Z,77199.43
2019-05-21T09:22:58.009Z,77251.69
2019-05-21T09:25:27.471Z,77279.76
2019-05-21T09:27:56.930Z,77316.97
2019-05-21T09:30:26.268Z,77310.65
2019-05-21T09:32:55.695Z,77303.16
2019-05-21T09:35:25.094Z,77315.69
2019-05-21T09:37:54.935Z,77329.74
2019-05-21T09:40:26.295Z,77361.69
2019-05-21T09:42:56.186Z,77381.22
2019-05-21T09:45:25.660Z,77361.36
2019-05-21T09:47:55.277Z,77346.53
2019-05-21T09:50:24.745Z,77379.69
2019-05-21T09:52:54.453Z,77391.64
2019-05-21T09:55:23.807Z,77370.49
2019-05-21T09:58:03.710Z,77329.86
2019-05-21T10:00:34.746Z,77326.00
2019-05-21T10:03:05.772Z,77311.05
2019-05-21T10:05:35.233Z,77338.88
2019-05-21T10:08:04.746Z,77336.08
2019-05-21T10:10:34.093Z,77340.48
2019-05-21T10:13:03.373Z,77368.88
2019-05-21T10:15:32.660Z,77374.47
2019-05-21T10:18:02.048Z,77434.44
2019-05-21T10:20:31.385Z,77475.75
2019-05-21T10:23:00.741Z,77480.50
2019-05-21T10:25:30.115Z,77446.77
2019-05-21T10:27:59.601Z,77436.08
2019-05-21T10:30:29.055Z,77443.16
2019-05-21T10:32:58.441Z,77434.12
2019-05-21T10:35:27.924Z,77405.19
2019-05-21T10:37:57.781Z,77376.45
2019-05-21T10:40:27.117Z,77379.24
2019-05-21T10:42:56.655Z,77385.45
2019-05-21T10:45:26.141Z,77383.09
2019-05-21T10:47:55.699Z,77371.52
2019-05-21T10:50:25.107Z,77368.95
2019-05-21T10:52:54.823Z,77396.88
2019-05-21T10:55:24.227Z,77419.20
2019-05-21T10:57:53.696Z,77416.64
2019-05-21T11:00:23.612Z,77430.65
2019-05-21T11:03:13.046Z,77407.34
2019-05-21T11:05:44.129Z,77373.03
2019-05-21T11:08:23.462Z,77333.34
2019-05-21T11:10:44.752Z,77306.70
2019-05-21T11:13:14.174Z,77309.58
2019-05-21T11:15:43.593Z,77307.02
2019-05-21T11:18:13.123Z,77314.55
2019-05-21T11:20:42.926Z,77289.11
2019-05-21T11:23:12.385Z,77292.03
2019-05-21T11:25:41.775Z,77297.17
2019-05-21T11:28:11.215Z,77281.75
2019-05-21T11:30:40.619Z,77273.44
2019-05-21T11:33:10.087Z,77279.91
2019-05-21T11:35:39.512Z,77294.90
2019-05-21T11:38:08.928Z,77291.05
2019-05-21T11:40:38.326Z,77274.08
2019-05-21T11:43:07.730Z,77257.41
2019-05-21T11:45:37.134Z,77217.80
2019-05-21T11:48:06.533Z,77231.10
2019-05-21T11:50:36.021Z,77238.95
2019-05-21T11:53:05.704Z,77243.59
2019-05-21T11:55:34.985Z,77268.49
2019-05-21T11:58:04.397Z,77297.17
2019-05-21T12:00:33.813Z,77332.62
2019-05-21T12:03:03.367Z,77363.18
2019-05-21T12:05:32.825Z,77393.57
2019-05-21T12:08:02.291Z,77444.30
2019-05-21T12:10:31.679Z,77458.63
2019-05-21T12:13:01.108Z,77457.30
2019-05-21T12:15:30.502Z,77467.48
2019-05-21T12:17:59.894Z,77474.27
2019-05-21T12:20:36.823Z,77467.77
2019-05-21T12:23:00.244Z,77445.58
2019-05-21T12:25:29.754Z,77445.30
2019-05-21T12:27:59.507Z,77432.64
2019-05-21T12:30:28.893Z,77418.58
2019-05-21T12:32:58.402Z,77416.64
2019-05-21T12:35:27.787Z,77404.69
2019-05-21T12:37:57.648Z,77402.42
2019-05-21T12:40:27.151Z,77396.94
2019-05-21T12:42:56.949Z,77415.36
2019-05-21T12:45:26.413Z,77406.90
2019-05-21T12:47:55.826Z,77401.66
2019-05-21T12:50:25.328Z,77377.55
2019-05-21T12:52:54.839Z,77392.03
2019-05-21T12:55:24.347Z,77388.68
2019-05-21T12:57:54.191Z,77374.97
2019-05-21T13:00:25.737Z,77373.64
2019-05-21T13:02:55.234Z,77390.98
2019-05-21T13:05:24.559Z,77377.68
2019-05-21T13:07:54.418Z,77359.88
2019-05-21T13:10:26.810Z,77381.42
2019-05-21T13:12:54.896Z,77394.95
2019-05-21T13:15:24.514Z,77388.23
2019-05-21T13:17:54.460Z,77391.21
2019-05-21T13:20:23.846Z,77391.21
2019-05-21T13:22:53.431Z,77384.38
2019-05-21T13:25:23.093Z,77360.16
2019-05-21T13:27:52.450Z,77359.72
2019-05-21T13:30:21.770Z,77343.80
2019-05-21T13:32:51.779Z,77318.53
2019-05-21T13:35:21.257Z,77314.38
2019-05-21T13:37:50.840Z,77305.34
2019-05-21T13:40:21.913Z,77310.36
2019-05-21T13:42:51.305Z,77292.41
2019-05-21T13:45:20.657Z,77297.33
2019-05-21T13:47:50.232Z,77304.85
2019-05-21T13:50:19.663Z,77296.61
2019-05-21T13:52:49.052Z,77293.27
2019-05-21T13:55:18.538Z,77299.95
2019-05-21T13:57:47.950Z,77294.19
2019-05-21T14:00:36.938Z,77285.20
2019-05-21T14:03:06.200Z,77286.20
2019-05-21T14:05:37.533Z,77297.92
2019-05-21T14:08:26.260Z,77300.34
2019-05-21T14:10:55.874Z,77300.63
2019-05-21T14:13:25.525Z,77296.59
2019-05-21T14:15:55.264Z,77295.67
2019-05-21T14:18:24.786Z,77307.08
2019-05-21T14:20:54.579Z,77316.69
2019-05-21T14:23:24.887Z,77337.73
2019-05-21T14:25:54.723Z,77342.98
2019-05-21T14:28:24.160Z,77348.14
2019-05-21T14:30:53.695Z,77364.16
2019-05-21T14:33:23.154Z,77341.27
2019-05-21T14:35:52.563Z,77332.52
2019-05-21T14:38:22.062Z,77345.66
2019-05-21T14:40:51.387Z,77353.42
2019-05-21T14:43:20.851Z,77348.53
2019-05-21T14:45:50.450Z,77326.34
2019-05-21T14:48:20.085Z,77317.22
2019-05-21T14:50:49.590Z,77326.63
2019-05-21T14:53:19.025Z,77318.64
2019-05-21T14:55:48.482Z,77308.39
2019-05-21T14:58:17.967Z,77323.25
2019-05-21T15:00:47.456Z,77328.05
2019-05-21T15:03:24.733Z,77327.07
2019-05-21T15:05:48.069Z,77344.80
2019-05-21T15:08:17.543Z,77354.33
2019-05-21T15:10:48.827Z,77357.83
2019-05-21T15:13:18.105Z,77355.03
2019-05-21T15:15:47.696Z,77350.23
2019-05-21T15:18:21.855Z,77329.86
2019-05-21T15:20:53.427Z,77335.81
2019-05-21T15:23:22.993Z,77327.84
2019-05-21T15:25:52.385Z,77336.70
2019-05-21T15:28:21.890Z,77336.16
2019-05-21T15:30:51.289Z,77342.63
2019-05-21T15:33:40.071Z,77346.40
2019-05-21T15:36:09.466Z,77336.58
2019-05-21T15:38:49.353Z,77347.10
2019-05-21T15:41:12.453Z,77377.34
2019-05-21T15:43:41.137Z,77380.47
2019-05-21T15:46:10.524Z,77382.94
2019-05-21T15:48:39.940Z,77352.59
2019-05-21T15:51:09.427Z,77355.08
2019-05-21T15:53:38.948Z,77341.06
2019-05-21T15:56:08.442Z,77343.64
2019-05-21T15:58:37.904Z,77342.98
2019-05-21T16:01:07.154Z,77342.70
2019-05-21T16:03:36.518Z,77335.88
2019-05-21T16:06:05.851Z,77325.45
2019-05-21T16:08:35.360Z,77323.81
2019-05-21T16:11:05.598Z,77309.86
2019-05-21T16:13:35.081Z,77318.30
2019-05-21T16:16:04.765Z,77337.24
2019-05-21T16:18:34.223Z,77335.09
2019-05-21T16:21:03.552Z,77355.19
2019-05-21T16:23:32.955Z,77378.24
2019-05-21T16:26:02.251Z,77396.48
2019-05-21T16:28:31.742Z,77408.05
2019-05-21T16:31:01.167Z,77421.61
2019-05-21T16:33:30.629Z,77438.90
2019-05-21T16:36:00.103Z,77451.30
2019-05-21T16:38:29.588Z,77434.83
2019-05-21T16:40:59.043Z,77425.89
2019-05-21T16:43:28.420Z,77405.14
2019-05-21T16:45:57.903Z,77389.59
2019-05-21T16:48:27.293Z,77383.72
2019-05-21T16:50:57.135Z,77385.16
2019-05-21T16:53:26.550Z,77388.78
2019-05-21T16:55:56.401Z,77401.72
2019-05-21T16:58:25.795Z,77415.45
2019-05-21T17:00:55.241Z,77404.03
2019-05-21T17:03:24.635Z,77375.30
2019-05-21T17:05:54.060Z,77371.39
2019-05-21T17:08:23.953Z,77362.25
2019-05-21T17:10:53.734Z,77340.28
2019-05-21T17:13:23.211Z,77324.87
2019-05-21T17:15:52.673Z,77318.73
2019-05-21T17:18:22.124Z,77321.13
2019-05-21T17:20:51.732Z,77320.43
2019-05-21T17:23:21.199Z,77307.70
2019-05-21T17:25:50.613Z,77297.00
2019-05-21T17:28:20.102Z,77294.69
2019-05-21T17:30:49.921Z,77262.66
2019-05-21T17:33:19.316Z,77252.69
2019-05-21T17:35:48.641Z,77250.45
2019-05-21T17:38:18.131Z,77248.73
2019-05-21T17:40:47.654Z,77237.16
2019-05-21T17:43:17.239Z,77226.59
2019-05-21T17:45:46.765Z,77208.58
2019-05-21T17:48:16.230Z,77198.84
2019-05-21T17:50:45.629Z,77184.44
2019-05-21T17:53:15.138Z,77169.45
2019-05-21T17:55:44.541Z,77162.08
2019-05-21T17:58:13.944Z,77157.66
2019-05-21T18:00:45.015Z,77147.72
2019-05-21T18:03:14.394Z,77136.22
2019-05-21T18:05:44.181Z,77121.98
2019-05-21T18:08:16.961Z,77116.30
2019-05-21T18:10:45.577Z,77113.94
2019-05-21T18:13:15.375Z,77109.56
2019-05-21T18:15:44.867Z,77105.33
2019-05-21T18:18:14.327Z,77098.84
2019-05-21T18:20:43.891Z,77094.48
2019-05-21T18:23:13.365Z,77086.42
2019-05-21T18:25:42.774Z,77080.50
2019-05-21T18:28:12.254Z,77071.09
2019-05-21T18:30:42.164Z,77065.22
2019-05-21T18:33:11.744Z,77056.94
2019-05-21T18:35:41.044Z,77051.63
2019-05-21T18:38:10.667Z,77043.50
2019-05-21T18:40:40.002Z,77034.38
2019-05-21T18:43:09.413Z,77025.31
2019-05-21T18:45:39.316Z,77021.33
2019-05-21T18:48:08.706Z,77013.75
2019-05-21T18:50:38.172Z,77007.25
2019-05-21T18:53:10.699Z,77002.98
2019-05-21T18:55:40.482Z,76998.56
2019-05-21T18:58:09.939Z,76995.65
2019-05-21T19:00:39.461Z,76993.94
2019-05-21T19:03:09.674Z,76990.55
2019-05-21T19:05:38.999Z,76991.36
2019-05-21T19:08:09.292Z,76992.89
2019-05-21T19:10:38.777Z,76986.20
2019-05-21T19:13:08.252Z,76977.31
2019-05-21T19:15:37.799Z,76971.34
2019-05-21T19:18:07.223Z,76970.18
2019-05-21T19:20:37.042Z,76965.14
2019-05-21T19:23:06.531Z,76961.36
2019-05-21T19:25:43.784Z,76957.91
2019-05-21T19:28:13.434Z,76959.02
2019-05-21T19:30:43.014Z,76955.03
2019-05-21T19:33:13.533Z,76948.23
2019-05-21T19:35:43.246Z,76941.88
2019-05-21T19:38:12.867Z,76940.42
2019-05-21T19:40:42.396Z,76936.85
2019-05-21T19:43:11.976Z,76931.63
2019-05-21T19:45:41.656Z,76925.24
2019-05-21T19:48:11.124Z,76921.67
2019-05-21T19:50:40.682Z,76920.14
2019-05-21T19:53:10.252Z,76918.81
2019-05-21T19:55:40.192Z,76909.38
2019-05-21T19:58:09.959Z,76904.27
2019-05-21T20:00:41.002Z,76900.34
2019-05-21T20:03:10.540Z,76895.39
2019-05-21T20:05:40.042Z,76890.88
2019-05-21T20:08:09.747Z,76891.38
2019-05-21T20:10:42.446Z,76890.82
2019-05-21T20:13:13.380Z,76872.95
2019-05-21T20:15:44.556Z,76861.30
2019-05-21T20:18:14.042Z,76844.86
2019-05-21T20:20:56.920Z,76834.64
2019-05-21T20:23:33.388Z,76826.55
2019-05-21T20:26:10.799Z,76815.41
2019-05-21T20:28:58.601Z,76802.56
2019-05-21T20:31:29.772Z,76790.41
2019-05-21T20:33:59.246Z,76784.32
2019-05-21T20:36:28.730Z,76780.17
2019-05-21T20:38:58.940Z,76775.08
2019-05-21T20:41:29.120Z,76766.66
2019-05-21T20:43:59.569Z,76761.25
2019-05-21T20:46:29.185Z,76755.75
2019-05-21T20:48:58.596Z,76751.98
2019-05-21T20:51:28.286Z,76748.13
2019-05-21T20:53:57.779Z,76743.27
2019-05-21T20:56:27.169Z,76740.58
2019-05-21T20:58:57.038Z,76738.16
2019-05-21T21:01:26.741Z,76735.75
2019-05-21T21:03:56.623Z,76730.73
2019-05-21T21:06:35.183Z,76727.42
2019-05-21T21:08:58.066Z,76720.83
2019-05-21T21:11:27.629Z,76715.05
2019-05-21T21:13:57.841Z,76710.78
2019-05-21T21:16:27.429Z,76707.39
2019-05-21T21:18:57.400Z,76708.30
2019-05-21T21:21:27.078Z,76711.97
2019-05-21T21:23:56.853Z,76712.78
2019-05-21T21:26:27.184Z,76709.54
2019-05-21T21:28:56.876Z,76718.55
2019-05-21T21:31:26.355Z,76718.67
2019-05-21T21:33:56.838Z,76713.03
2019-05-21T21:36:26.329Z,76703.30
2019-05-21T21:38:56.205Z,76696.98
2019-05-21T21:41:25.476Z,76688.14
2019-05-21T21:43:55.169Z,76684.49
2019-05-21T21:46:24.693Z,76686.57
2019-05-21T21:48:54.576Z,76683.53
2019-05-21T21:51:25.042Z,76681.34
2019-05-21T21:53:55.245Z,76681.66
2019-05-21T21:56:24.631Z,76682.35
2019-05-21T21:58:54.249Z,76681.09
2019-05-21T22:01:43.431Z,76680.92
2019-05-21T22:04:13.119Z,76680.93
2019-05-21T22:06:42.704Z,76672.49
2019-05-21T22:09:14.045Z,76673.80
2019-05-21T22:11:43.735Z,76681.98
2019-05-21T22:14:13.388Z,76679.36
2019-05-21T22:16:43.364Z,76675.19
2019-05-21T22:19:12.863Z,76675.71
2019-05-21T22:21:42.178Z,76672.47
2019-05-21T22:24:12.044Z,76671.49
2019-05-21T22:26:41.704Z,76671.53
2019-05-21T22:29:11.654Z,76672.02
2019-05-21T22:31:41.676Z,76665.67
2019-05-21T22:34:11.410Z,76659.84
2019-05-21T22:36:40.874Z,76654.23
2019-05-21T22:39:14.647Z,76651.84
2019-05-21T22:41:44.106Z,76655.63
2019-05-21T22:44:13.876Z,76654.59
2019-05-21T22:46:43.407Z,76653.23
2019-05-21T22:49:12.851Z,76654.21
2019-05-21T22:51:42.251Z,76655.83
2019-05-21T22:54:11.655Z,76650.69
2019-05-21T22:56:41.162Z,76647.63
2019-05-21T22:59:10.630Z,76649.67
2019-05-21T23:01:40.337Z,76645.72
2019-05-21T23:04:10.440Z,76646.43
2019-05-21T23:06:59.784Z,76645.33
2019-05-21T23:09:29.299Z,76643.19
2019-05-21T23:11:58.692Z,76635.39
2019-05-21T23:14:28.367Z,76626.81
2019-05-21T23:16:58.371Z,76622.47
2019-05-21T23:19:29.553Z,76620.06
2019-05-21T23:21:59.253Z,76625.84
2019-05-21T23:24:29.859Z,76627.81
2019-05-21T23:26:59.600Z,76629.02
2019-05-21T23:29:29.294Z,76624.80
2019-05-21T23:31:58.712Z,76623.14
2019-05-21T23:34:28.898Z,76617.25
2019-05-21T23:36:58.991Z,76620.50
2019-05-21T23:39:28.720Z,76623.61
2019-05-21T23:41:58.474Z,76622.69
2019-05-21T23:44:28.103Z,76622.69
2019-05-21T23:46:57.803Z,76623.13
2019-05-21T23:49:27.249Z,76620.98
2019-05-21T23:51:57.128Z,76614.95
2019-05-21T23:54:26.514Z,76610.30
2019-05-21T23:56:57.888Z,76606.73
2019-05-21T23:59:27.354Z,76604.99
